Time;durP1;ratioP1;P1;durP2;ratioP2;P2;SDS_P1;SDS_P2;PMS_P1;PMS_P2;Temp;Humidity;BMP_temperature;BMP_pressure;BME280_temperature;BME280_humidity;BME280_pressure;Samples;Min_cycle;Max_cycle;Signal;HPM_P1;HPM_P2
2022/12/17 13:06:01;;;;;;;79.17;29.07;;;;;;;;;;6220453;22;20155;-90
2022/12/17 13:09:20;;;;;;;80.20;29.47;;;;;;;;;;6219794;22;20170;-89
2022/12/17 13:12:33;;;;;;;86.63;29.73;;;;;;;;;;6217652;23;20262;-90
2022/12/17 13:15:42;;;;;;;87.90;30.20;;;;;;;;;;6217626;22;20159;-90
2022/12/17 13:18:47;;;;;;;82.70;28.00;;;;;;;;;;6214944;22;20543;-91
2022/12/17 13:21:53;;;;;;;84.50;28.80;;;;;;;;;;6215552;22;20155;-90
2022/12/17 13:25:19;;;;;;;92.60;29.37;;;;;;;;;;6216424;22;20166;-89
2022/12/17 13:28:29;;;;;;;89.70;29.83;;;;;;;;;;6215366;22;20273;-89
2022/12/17 13:31:44;;;;;;;68.33;24.07;;;;;;;;;;6216831;22;20159;-92
2022/12/17 13:34:55;;;;;;;85.47;29.40;;;;;;;;;;6219104;22;20260;-90
2022/12/17 13:38:05;;;;;;;100.07;32.70;;;;;;;;;;6220000;22;20166;-91
2022/12/17 13:41:12;;;;;;;86.93;28.83;;;;;;;;;;6219087;23;20527;-89
2022/12/17 13:44:19;;;;;;;102.10;32.07;;;;;;;;;;6218709;23;20203;-87
2022/12/17 13:47:27;;;;;;;72.80;25.43;;;;;;;;;;6218319;22;20230;-90
2022/12/17 13:50:33;;;;;;;84.07;29.63;;;;;;;;;;6219249;22;20146;-91
2022/12/17 13:53:39;;;;;;;83.57;28.27;;;;;;;;;;6218339;23;20166;-89
2022/12/17 13:56:47;;;;;;;80.73;27.70;;;;;;;;;;6218458;23;20167;-89
2022/12/17 13:59:53;;;;;;;79.83;26.60;;;;;;;;;;6218213;23;20234;-89
2022/12/17 14:03:10;;;;;;;76.57;27.07;;;;;;;;;;6219847;22;20171;-91
2022/12/17 14:06:16;;;;;;;74.53;26.43;;;;;;;;;;6217856;23;20215;-89
2022/12/17 14:09:22;;;;;;;74.90;23.27;;;;;;;;;;6218604;22;20243;-89
2022/12/17 14:12:28;;;;;;;84.97;27.60;;;;;;;;;;6217094;23;20190;-90
2022/12/17 14:15:34;;;;;;;79.13;25.70;;;;;;;;;;6219425;22;20195;-91
2022/12/17 14:18:43;;;;;;;72.17;26.10;;;;;;;;;;6217141;22;20175;-92
2022/12/17 14:21:49;;;;;;;76.87;25.63;;;;;;;;;;6216055;22;20174;-90
2022/12/17 14:24:55;;;;;;;77.97;26.83;;;;;;;;;;6218443;22;20190;-89
2022/12/17 18:28:45;;;;;;;65.47;21.73;;;;;;;;;;6216258;22;20195;-90
2022/12/17 18:31:50;;;;;;;61.97;20.20;;;;;;;;;;6213923;23;20171;-91
2022/12/17 18:34:56;;;;;;;66.60;21.77;;;;;;;;;;6213067;23;20358;-90
2022/12/17 18:38:01;;;;;;;64.13;22.43;;;;;;;;;;6214968;22;20179;-91
2022/12/17 18:43:21;;;;;;;62.33;21.03;;;;;;;;;;6216362;23;20194;-90
2022/12/17 18:44:36;;;;;;;62.80;21.63;;;;;;;;;;6234212;22;20182;-90
2022/12/17 18:47:43;;;;;;;60.10;21.10;;;;;;;;;;6215690;22;20166;-91
2022/12/17 18:50:48;;;;;;;59.67;20.73;;;;;;;;;;6216866;23;20496;-92
2022/12/17 18:53:57;;;;;;;63.57;21.73;;;;;;;;;;6216198;23;20155;-90
2022/12/17 18:57:02;;;;;;;69.53;23.50;;;;;;;;;;6216750;22;20167;-91
2022/12/17 19:00:10;;;;;;;58.03;20.50;;;;;;;;;;6215845;22;20179;-91
2022/12/17 19:03:16;;;;;;;76.43;23.20;;;;;;;;;;6216761;22;20220;-89
2022/12/17 19:06:27;;;;;;;63.83;21.47;;;;;;;;;;6217468;22;20199;-89
2022/12/17 19:09:34;;;;;;;76.00;24.37;;;;;;;;;;6216194;22;20167;-92
2022/12/17 19:12:41;;;;;;;71.93;25.57;;;;;;;;;;6217156;23;20162;-91
2022/12/17 19:19:07;;;;;;;73.70;24.53;;;;;;;;;;6232082;22;20167;-92
2022/12/17 19:22:12;;;;;;;79.63;23.50;;;;;;;;;;6215036;22;20155;-91
2022/12/17 19:25:18;;;;;;;73.50;24.03;;;;;;;;;;6215633;23;20171;-91
2022/12/17 19:28:23;;;;;;;70.60;23.97;;;;;;;;;;6217668;22;20170;-90
2022/12/17 19:31:32;;;;;;;71.97;23.60;;;;;;;;;;6217087;22;20179;-92
2022/12/17 19:34:37;;;;;;;68.43;23.63;;;;;;;;;;6215572;23;20215;-90
2022/12/17 19:37:45;;;;;;;68.63;23.20;;;;;;;;;;6214783;22;20227;-92
2022/12/17 19:40:51;;;;;;;69.67;22.97;;;;;;;;;;6214851;22;20195;-91
2022/12/17 19:43:57;;;;;;;65.70;23.10;;;;;;;;;;6215226;23;20168;-88
2022/12/17 19:47:06;;;;;;;70.23;21.47;;;;;;;;;;6215633;23;20164;-92
2022/12/17 19:50:11;;;;;;;61.50;21.67;;;;;;;;;;6214122;23;20171;-89
2022/12/17 19:53:18;;;;;;;77.37;24.40;;;;;;;;;;6213959;22;20279;-92
2022/12/17 19:56:24;;;;;;;72.23;24.47;;;;;;;;;;6213145;22;20167;-93
2022/12/17 19:59:30;;;;;;;66.60;22.70;;;;;;;;;;6215663;23;20152;-90
2022/12/17 20:02:37;;;;;;;67.93;22.90;;;;;;;;;;6217216;23;20168;-92
2022/12/17 20:05:43;;;;;;;69.27;22.77;;;;;;;;;;6216240;22;20610;-90
2022/12/17 20:08:49;;;;;;;66.70;23.63;;;;;;;;;;6216763;22;20163;-92
2022/12/17 20:11:54;;;;;;;77.70;25.07;;;;;;;;;;6216071;22;20262;-91
2022/12/17 20:15:00;;;;;;;65.13;22.10;;;;;;;;;;6214973;22;20251;-90
2022/12/17 20:18:07;;;;;;;71.17;22.57;;;;;;;;;;6215736;23;20235;-90
2022/12/17 20:21:12;;;;;;;75.67;21.57;;;;;;;;;;6217311;22;20270;-88
2022/12/17 20:24:19;;;;;;;73.80;22.80;;;;;;;;;;6218300;22;20210;-91
2022/12/17 20:27:24;;;;;;;70.90;21.50;;;;;;;;;;6216891;23;20167;-89
2022/12/17 20:30:30;;;;;;;71.63;22.03;;;;;;;;;;6218463;23;20159;-91
2022/12/17 20:33:38;;;;;;;55.97;17.40;;;;;;;;;;6215522;22;20178;-90
2022/12/17 20:36:46;;;;;;;53.83;17.50;;;;;;;;;;6212071;23;20163;-91
2022/12/17 20:39:52;;;;;;;63.90;18.90;;;;;;;;;;6212983;23;20167;-90
2022/12/17 20:42:57;;;;;;;63.87;19.23;;;;;;;;;;6212743;23;20174;-89
2022/12/17 20:46:03;;;;;;;66.40;19.80;;;;;;;;;;6216947;22;20218;-90
2022/12/17 20:49:11;;;;;;;60.73;20.47;;;;;;;;;;6215894;23;20168;-91
2022/12/17 20:52:17;;;;;;;68.13;20.77;;;;;;;;;;6215030;23;20176;-93
2022/12/17 20:55:23;;;;;;;63.57;21.27;;;;;;;;;;6217371;22;20579;-89
2022/12/17 20:58:29;;;;;;;62.70;19.57;;;;;;;;;;6217036;22;20163;-92
2022/12/17 21:01:34;;;;;;;61.57;18.50;;;;;;;;;;6217281;22;20199;-90
2022/12/17 21:04:43;;;;;;;67.03;20.93;;;;;;;;;;6219716;23;20228;-87
2022/12/17 21:07:50;;;;;;;53.97;19.90;;;;;;;;;;6219939;23;20163;-90
2022/12/17 21:10:56;;;;;;;74.53;21.77;;;;;;;;;;6218833;22;20210;-91
2022/12/17 21:14:07;;;;;;;68.87;20.40;;;;;;;;;;6219241;22;20167;-90
2022/12/17 21:17:16;;;;;;;62.87;20.07;;;;;;;;;;6218247;23;20184;-90
2022/12/17 21:20:23;;;;;;;65.30;21.07;;;;;;;;;;6218334;23;20195;-87
2022/12/17 21:23:29;;;;;;;71.17;22.70;;;;;;;;;;6216155;23;20167;-92
2022/12/17 21:26:35;;;;;;;68.47;22.53;;;;;;;;;;6215558;22;20183;-90
2022/12/17 21:29:40;;;;;;;64.57;21.10;;;;;;;;;;6215650;22;20567;-89
2022/12/17 21:32:46;;;;;;;61.37;20.47;;;;;;;;;;6215769;23;20179;-88
2022/12/17 21:35:58;;;;;;;57.33;19.37;;;;;;;;;;6216014;23;20654;-88
2022/12/17 21:39:06;;;;;;;65.30;22.10;;;;;;;;;;6215448;23;20227;-91
2022/12/17 21:46:27;;;;;;;68.47;21.90;;;;;;;;;;6233167;22;20207;-91
2022/12/17 21:49:33;;;;;;;68.97;21.77;;;;;;;;;;6216322;23;20240;-92
2022/12/17 21:52:42;;;;;;;69.77;20.33;;;;;;;;;;6216227;23;20194;-91
2022/12/17 21:55:47;;;;;;;76.13;21.07;;;;;;;;;;6214604;23;20187;-92
2022/12/17 21:58:56;;;;;;;76.03;21.80;;;;;;;;;;6214684;23;20183;-88
2022/12/17 22:02:01;;;;;;;77.30;23.57;;;;;;;;;;6215000;23;20190;-91
2022/12/17 22:05:07;;;;;;;71.17;22.67;;;;;;;;;;6212793;23;20187;-89
2022/12/17 22:08:14;;;;;;;69.47;21.27;;;;;;;;;;6213162;23;20167;-91
2022/12/17 22:11:21;;;;;;;69.43;21.53;;;;;;;;;;6210640;22;20167;-89
2022/12/17 22:14:28;;;;;;;64.13;20.27;;;;;;;;;;6212074;23;20175;-90
2022/12/17 22:17:33;;;;;;;71.43;22.80;;;;;;;;;;6213055;23;20163;-92
2022/12/17 22:20:39;;;;;;;72.57;21.37;;;;;;;;;;6212548;23;20617;-89
2022/12/17 22:23:47;;;;;;;73.03;22.57;;;;;;;;;;6212962;23;20167;-90
2022/12/17 22:26:58;;;;;;;68.03;20.83;;;;;;;;;;6215477;22;20663;-89
2022/12/17 22:33:28;;;;;;;69.40;20.70;;;;;;;;;;6211652;23;20186;-91
2022/12/17 22:36:34;;;;;;;61.73;20.03;;;;;;;;;;6215872;23;20599;-89
2022/12/17 22:39:41;;;;;;;67.97;21.80;;;;;;;;;;6215209;22;20175;-89
2022/12/17 22:47:08;;;;;;;56.60;16.90;;;;;;;;;;6234975;23;20163;-89
2022/12/17 22:50:14;;;;;;;74.43;21.17;;;;;;;;;;6217858;22;20163;-88
2022/12/17 22:53:20;;;;;;;62.90;18.63;;;;;;;;;;6218792;23;20224;-89
2022/12/17 22:56:28;;;;;;;68.07;19.63;;;;;;;;;;6213953;23;20218;-89
2022/12/17 22:59:34;;;;;;;71.13;22.20;;;;;;;;;;6220625;23;20172;-88
2022/12/17 23:06:27;;;;;;;56.67;19.27;;;;;;;;;;6217174;23;20147;-92
2022/12/17 23:09:33;;;;;;;74.93;20.07;;;;;;;;;;6217971;23;20250;-91
2022/12/17 23:12:53;;;;;;;62.07;19.83;;;;;;;;;;6218001;23;20175;-90
2022/12/17 23:15:59;;;;;;;68.07;21.17;;;;;;;;;;6215474;22;20147;-89
2022/12/17 23:19:05;;;;;;;66.73;20.97;;;;;;;;;;6218873;22;20212;-88
2022/12/17 23:22:10;;;;;;;73.37;22.57;;;;;;;;;;6217322;23;20182;-89
2022/12/17 23:25:16;;;;;;;65.93;20.00;;;;;;;;;;6216618;23;20179;-91
2022/12/17 23:28:24;;;;;;;79.27;22.07;;;;;;;;;;6216201;23;20186;-92
2022/12/17 23:31:29;;;;;;;67.13;19.63;;;;;;;;;;6217436;23;20226;-89
2022/12/17 23:34:35;;;;;;;62.27;19.53;;;;;;;;;;6216425;23;20222;-89
2022/12/17 23:37:41;;;;;;;69.83;19.83;;;;;;;;;;6217496;23;20163;-90
2022/12/17 23:40:47;;;;;;;67.23;20.00;;;;;;;;;;6212185;22;20198;-88
2022/12/17 23:43:55;;;;;;;73.17;22.47;;;;;;;;;;6216283;23;20171;-89
2022/12/17 23:47:01;;;;;;;65.50;20.70;;;;;;;;;;6216906;22;20168;-88
2022/12/17 23:50:07;;;;;;;66.67;19.70;;;;;;;;;;6217871;22;20167;-91
2022/12/17 23:53:13;;;;;;;74.57;21.73;;;;;;;;;;6218176;23;20248;-90
2022/12/17 23:56:19;;;;;;;68.60;22.63;;;;;;;;;;6218940;23;20171;-88
2022/12/17 23:59:26;;;;;;;74.13;18.90;;;;;;;;;;6218657;23;20167;-92
